sensor_id;sensor_type;location;lat;lon;timestamp;temperature;humidity
17701;DHT22;8969;48.576;12.580;2024-03-07T00:01:45;6.20;99.90
17701;DHT22;8969;48.576;12.580;2024-03-07T00:04:13;6.20;99.90
17701;DHT22;8969;48.576;12.580;2024-03-07T00:06:41;6.20;99.90
17701;DHT22;8969;48.576;12.580;2024-03-07T00:09:10;6.20;99.90
17701;DHT22;8969;48.576;12.580;2024-03-07T00:11:39;6.10;99.90
17701;DHT22;8969;48.576;12.580;2024-03-07T00:14:08;6.10;99.90
17701;DHT22;8969;48.576;12.580;2024-03-07T00:16:36;6.10;99.90
17701;DHT22;8969;48.576;12.580;2024-03-07T00:19:04;6.10;99.90
17701;DHT22;8969;48.576;12.580;2024-03-07T00:21:33;6.00;99.90
17701;DHT22;8969;48.576;12.580;2024-03-07T00:24:01;6.10;99.90
17701;DHT22;8969;48.576;12.580;2024-03-07T00:26:32;6.00;99.90
17701;DHT22;8969;48.576;12.580;2024-03-07T00:29:02;6.00;99.90
17701;DHT22;8969;48.576;12.580;2024-03-07T00:31:30;6.00;99.90
17701;DHT22;8969;48.576;12.580;2024-03-07T00:33:58;6.00;99.90
17701;DHT22;8969;48.576;12.580;2024-03-07T00:36:42;6.00;99.90
17701;DHT22;8969;48.576;12.580;2024-03-07T00:39:12;5.90;99.90
17701;DHT22;8969;48.576;12.580;2024-03-07T00:41:40;5.90;99.90
17701;DHT22;8969;48.576;12.580;2024-03-07T00:44:10;5.90;99.90
17701;DHT22;8969;48.576;12.580;2024-03-07T00:46:38;5.90;99.90
17701;DHT22;8969;48.576;12.580;2024-03-07T00:49:06;5.80;99.90
17701;DHT22;8969;48.576;12.580;2024-03-07T00:51:35;5.80;99.90
17701;DHT22;8969;48.576;12.580;2024-03-07T00:54:06;5.80;99.90
17701;DHT22;8969;48.576;12.580;2024-03-07T00:56:34;5.80;99.90
17701;DHT22;8969;48.576;12.580;2024-03-07T00:59:03;5.80;99.90
17701;DHT22;8969;48.576;12.580;2024-03-07T01:01:33;5.70;99.90
17701;DHT22;8969;48.576;12.580;2024-03-07T01:04:03;5.70;99.90
17701;DHT22;8969;48.576;12.580;2024-03-07T01:06:32;5.70;99.90
17701;DHT22;8969;48.576;12.580;2024-03-07T01:09:00;5.70;99.90
17701;DHT22;8969;48.576;12.580;2024-03-07T01:11:29;5.70;99.90
17701;DHT22;8969;48.576;12.580;2024-03-07T01:13:57;5.70;99.90
17701;DHT22;8969;48.576;12.580;2024-03-07T01:16:25;5.60;99.90
17701;DHT22;8969;48.576;12.580;2024-03-07T01:18:54;5.60;99.90
17701;DHT22;8969;48.576;12.580;2024-03-07T01:21:23;5.60;99.90
17701;DHT22;8969;48.576;12.580;2024-03-07T01:23:52;5.50;99.90
17701;DHT22;8969;48.576;12.580;2024-03-07T01:26:21;5.60;99.90
17701;DHT22;8969;48.576;12.580;2024-03-07T01:28:51;5.50;99.90
17701;DHT22;8969;48.576;12.580;2024-03-07T01:31:20;5.50;99.90
17701;DHT22;8969;48.576;12.580;2024-03-07T01:33:49;5.50;99.90
17701;DHT22;8969;48.576;12.580;2024-03-07T01:36:18;5.40;99.90
17701;DHT22;8969;48.576;12.580;2024-03-07T01:38:47;5.40;99.90
17701;DHT22;8969;48.576;12.580;2024-03-07T01:41:16;5.40;99.90
17701;DHT22;8969;48.576;12.580;2024-03-07T01:43:44;5.30;99.90
17701;DHT22;8969;48.576;12.580;2024-03-07T01:46:12;5.30;99.90
17701;DHT22;8969;48.576;12.580;2024-03-07T01:48:41;5.30;99.90
17701;DHT22;8969;48.576;12.580;2024-03-07T01:51:10;5.30;99.90
17701;DHT22;8969;48.576;12.580;2024-03-07T01:53:39;5.30;99.90
17701;DHT22;8969;48.576;12.580;2024-03-07T01:56:08;5.20;99.90
17701;DHT22;8969;48.576;12.580;2024-03-07T01:58:36;5.20;99.90
17701;DHT22;8969;48.576;12.580;2024-03-07T02:01:05;5.10;99.90
17701;DHT22;8969;48.576;12.580;2024-03-07T02:03:33;5.10;99.90
17701;DHT22;8969;48.576;12.580;2024-03-07T02:06:04;5.10;99.90
17701;DHT22;8969;48.576;12.580;2024-03-07T02:08:32;5.10;99.90
17701;DHT22;8969;48.576;12.580;2024-03-07T02:11:03;5.10;99.90
17701;DHT22;8969;48.576;12.580;2024-03-07T02:13:31;5.00;99.90
17701;DHT22;8969;48.576;12.580;2024-03-07T02:16:00;4.90;99.90
17701;DHT22;8969;48.576;12.580;2024-03-07T02:18:28;4.90;99.90
17701;DHT22;8969;48.576;12.580;2024-03-07T02:20:59;4.90;99.90
17701;DHT22;8969;48.576;12.580;2024-03-07T02:23:27;4.90;99.90
17701;DHT22;8969;48.576;12.580;2024-03-07T02:25:55;4.90;99.90
17701;DHT22;8969;48.576;12.580;2024-03-07T02:28:23;4.90;99.90
17701;DHT22;8969;48.576;12.580;2024-03-07T02:30:51;4.80;99.90
17701;DHT22;8969;48.576;12.580;2024-03-07T02:33:20;4.70;99.90
17701;DHT22;8969;48.576;12.580;2024-03-07T02:35:48;4.60;99.90
17701;DHT22;8969;48.576;12.580;2024-03-07T02:38:19;4.70;99.90
17701;DHT22;8969;48.576;12.580;2024-03-07T02:40:47;4.70;99.90
17701;DHT22;8969;48.576;12.580;2024-03-07T02:43:15;4.60;99.90
17701;DHT22;8969;48.576;12.580;2024-03-07T02:45:43;4.50;99.90
17701;DHT22;8969;48.576;12.580;2024-03-07T02:48:11;4.50;99.90
17701;DHT22;8969;48.576;12.580;2024-03-07T02:50:40;4.40;99.90
17701;DHT22;8969;48.576;12.580;2024-03-07T02:53:09;4.40;99.90
17701;DHT22;8969;48.576;12.580;2024-03-07T02:55:38;4.40;99.90
17701;DHT22;8969;48.576;12.580;2024-03-07T02:58:06;4.40;99.90
17701;DHT22;8969;48.576;12.580;2024-03-07T03:00:35;4.30;99.90
17701;DHT22;8969;48.576;12.580;2024-03-07T03:03:04;4.30;99.90
17701;DHT22;8969;48.576;12.580;2024-03-07T03:05:33;4.20;99.90
17701;DHT22;8969;48.576;12.580;2024-03-07T03:08:02;4.20;99.90
17701;DHT22;8969;48.576;12.580;2024-03-07T03:10:33;4.20;99.90
17701;DHT22;8969;48.576;12.580;2024-03-07T03:13:04;4.20;99.90
17701;DHT22;8969;48.576;12.580;2024-03-07T03:15:33;4.20;99.90
17701;DHT22;8969;48.576;12.580;2024-03-07T03:18:02;4.20;99.90
17701;DHT22;8969;48.576;12.580;2024-03-07T03:20:31;4.20;99.90
17701;DHT22;8969;48.576;12.580;2024-03-07T03:23:03;4.10;99.90
17701;DHT22;8969;48.576;12.580;2024-03-07T03:25:47;4.10;99.90
17701;DHT22;8969;48.576;12.580;2024-03-07T03:28:18;4.10;99.90
17701;DHT22;8969;48.576;12.580;2024-03-07T03:30:49;4.10;99.90
17701;DHT22;8969;48.576;12.580;2024-03-07T03:33:17;4.10;99.90
17701;DHT22;8969;48.576;12.580;2024-03-07T03:35:46;4.00;99.90
17701;DHT22;8969;48.576;12.580;2024-03-07T03:38:14;4.00;99.90
17701;DHT22;8969;48.576;12.580;2024-03-07T03:40:43;3.90;99.90
17701;DHT22;8969;48.576;12.580;2024-03-07T03:43:12;3.90;99.90
17701;DHT22;8969;48.576;12.580;2024-03-07T03:45:42;3.80;99.90
17701;DHT22;8969;48.576;12.580;2024-03-07T03:48:10;3.80;99.90
17701;DHT22;8969;48.576;12.580;2024-03-07T03:50:38;3.70;99.90
17701;DHT22;8969;48.576;12.580;2024-03-07T03:53:06;3.70;99.90
17701;DHT22;8969;48.576;12.580;2024-03-07T03:55:35;3.60;99.90
17701;DHT22;8969;48.576;12.580;2024-03-07T03:58:03;3.60;99.90
17701;DHT22;8969;48.576;12.580;2024-03-07T04:00:32;3.50;99.90
17701;DHT22;8969;48.576;12.580;2024-03-07T04:03:02;3.40;99.90
17701;DHT22;8969;48.576;12.580;2024-03-07T04:05:31;3.40;99.90
17701;DHT22;8969;48.576;12.580;2024-03-07T04:07:59;3.40;99.90
17701;DHT22;8969;48.576;12.580;2024-03-07T04:10:28;3.40;99.90
17701;DHT22;8969;48.576;12.580;2024-03-07T04:12:56;3.40;99.90
17701;DHT22;8969;48.576;12.580;2024-03-07T04:15:24;3.30;99.90
17701;DHT22;8969;48.576;12.580;2024-03-07T04:17:54;3.30;99.90
17701;DHT22;8969;48.576;12.580;2024-03-07T04:20:25;3.20;99.90
17701;DHT22;8969;48.576;12.580;2024-03-07T04:22:53;3.20;99.90
17701;DHT22;8969;48.576;12.580;2024-03-07T04:25:22;3.20;99.90
17701;DHT22;8969;48.576;12.580;2024-03-07T04:27:51;3.10;99.90
17701;DHT22;8969;48.576;12.580;2024-03-07T04:30:20;3.10;99.90
17701;DHT22;8969;48.576;12.580;2024-03-07T04:32:48;3.00;99.90
17701;DHT22;8969;48.576;12.580;2024-03-07T04:35:16;3.00;99.90
17701;DHT22;8969;48.576;12.580;2024-03-07T04:37:47;3.00;99.90
17701;DHT22;8969;48.576;12.580;2024-03-07T04:40:16;2.90;99.90
17701;DHT22;8969;48.576;12.580;2024-03-07T04:42:46;2.90;99.90
17701;DHT22;8969;48.576;12.580;2024-03-07T04:45:15;2.80;99.90
17701;DHT22;8969;48.576;12.580;2024-03-07T04:47:45;2.70;99.90
17701;DHT22;8969;48.576;12.580;2024-03-07T04:50:15;2.70;99.90
17701;DHT22;8969;48.576;12.580;2024-03-07T04:52:48;2.60;99.90
17701;DHT22;8969;48.576;12.580;2024-03-07T04:55:17;2.60;99.90
17701;DHT22;8969;48.576;12.580;2024-03-07T04:57:46;2.50;99.90
17701;DHT22;8969;48.576;12.580;2024-03-07T05:00:15;2.40;99.90
17701;DHT22;8969;48.576;12.580;2024-03-07T05:02:48;2.50;99.90
17701;DHT22;8969;48.576;12.580;2024-03-07T05:05:18;2.40;99.90
17701;DHT22;8969;48.576;12.580;2024-03-07T05:07:51;2.40;99.90
17701;DHT22;8969;48.576;12.580;2024-03-07T05:10:20;2.40;99.90
17701;DHT22;8969;48.576;12.580;2024-03-07T05:12:49;2.40;99.90
17701;DHT22;8969;48.576;12.580;2024-03-07T05:15:17;2.40;99.90
17701;DHT22;8969;48.576;12.580;2024-03-07T05:17:46;2.30;99.90
17701;DHT22;8969;48.576;12.580;2024-03-07T05:20:14;2.30;99.90
17701;DHT22;8969;48.576;12.580;2024-03-07T05:22:43;2.30;99.90
17701;DHT22;8969;48.576;12.580;2024-03-07T05:25:20;2.20;99.90
17701;DHT22;8969;48.576;12.580;2024-03-07T05:27:49;2.20;99.90
17701;DHT22;8969;48.576;12.580;2024-03-07T05:30:18;2.10;99.90
17701;DHT22;8969;48.576;12.580;2024-03-07T05:32:47;2.20;99.90
17701;DHT22;8969;48.576;12.580;2024-03-07T05:35:16;2.10;99.90
17701;DHT22;8969;48.576;12.580;2024-03-07T05:37:48;2.20;99.90
17701;DHT22;8969;48.576;12.580;2024-03-07T05:40:20;2.10;99.90
17701;DHT22;8969;48.576;12.580;2024-03-07T05:42:48;2.00;99.90
17701;DHT22;8969;48.576;12.580;2024-03-07T05:45:16;2.10;99.90
17701;DHT22;8969;48.576;12.580;2024-03-07T05:47:46;2.10;99.90
17701;DHT22;8969;48.576;12.580;2024-03-07T05:50:16;2.00;99.90
17701;DHT22;8969;48.576;12.580;2024-03-07T05:52:45;2.00;99.90
17701;DHT22;8969;48.576;12.580;2024-03-07T05:55:16;2.00;99.90
17701;DHT22;8969;48.576;12.580;2024-03-07T05:57:47;1.90;99.90
17701;DHT22;8969;48.576;12.580;2024-03-07T06:00:16;1.90;99.90
17701;DHT22;8969;48.576;12.580;2024-03-07T06:02:56;1.90;99.90
17701;DHT22;8969;48.576;12.580;2024-03-07T06:05:24;2.00;99.90
17701;DHT22;8969;48.576;12.580;2024-03-07T06:07:54;2.00;99.90
17701;DHT22;8969;48.576;12.580;2024-03-07T06:10:23;2.00;99.90
17701;DHT22;8969;48.576;12.580;2024-03-07T06:12:54;2.00;99.90
17701;DHT22;8969;48.576;12.580;2024-03-07T06:15:36;2.00;99.90
17701;DHT22;8969;48.576;12.580;2024-03-07T06:18:05;2.00;99.90
17701;DHT22;8969;48.576;12.580;2024-03-07T06:20:35;2.10;99.90
17701;DHT22;8969;48.576;12.580;2024-03-07T06:23:04;2.10;99.90
17701;DHT22;8969;48.576;12.580;2024-03-07T06:25:32;2.10;99.90
17701;DHT22;8969;48.576;12.580;2024-03-07T06:28:06;2.10;99.90
17701;DHT22;8969;48.576;12.580;2024-03-07T06:30:39;2.20;99.90
17701;DHT22;8969;48.576;12.580;2024-03-07T06:33:07;2.10;99.90
17701;DHT22;8969;48.576;12.580;2024-03-07T06:35:35;2.10;99.90
17701;DHT22;8969;48.576;12.580;2024-03-07T06:38:06;2.10;99.90
17701;DHT22;8969;48.576;12.580;2024-03-07T06:40:35;2.10;99.90
17701;DHT22;8969;48.576;12.580;2024-03-07T06:43:04;2.10;99.90
17701;DHT22;8969;48.576;12.580;2024-03-07T06:45:35;2.10;99.90
17701;DHT22;8969;48.576;12.580;2024-03-07T06:48:07;2.10;99.90
17701;DHT22;8969;48.576;12.580;2024-03-07T06:50:44;2.20;99.90
17701;DHT22;8969;48.576;12.580;2024-03-07T06:53:12;2.10;99.90
17701;DHT22;8969;48.576;12.580;2024-03-07T06:55:40;2.20;99.90
17701;DHT22;8969;48.576;12.580;2024-03-07T06:58:08;2.20;99.90
17701;DHT22;8969;48.576;12.580;2024-03-07T07:00:38;2.20;99.90
17701;DHT22;8969;48.576;12.580;2024-03-07T07:03:07;2.30;99.90
17701;DHT22;8969;48.576;12.580;2024-03-07T07:05:35;2.30;99.90
17701;DHT22;8969;48.576;12.580;2024-03-07T07:08:04;2.30;99.90
17701;DHT22;8969;48.576;12.580;2024-03-07T07:10:34;2.20;99.90
17701;DHT22;8969;48.576;12.580;2024-03-07T07:13:03;2.30;99.90
17701;DHT22;8969;48.576;12.580;2024-03-07T07:15:32;2.30;99.90
17701;DHT22;8969;48.576;12.580;2024-03-07T07:18:03;2.40;99.90
17701;DHT22;8969;48.576;12.580;2024-03-07T07:20:33;2.40;99.90
17701;DHT22;8969;48.576;12.580;2024-03-07T07:23:02;2.50;99.90
17701;DHT22;8969;48.576;12.580;2024-03-07T07:25:31;2.50;99.90
17701;DHT22;8969;48.576;12.580;2024-03-07T07:28:00;2.50;99.90
17701;DHT22;8969;48.576;12.580;2024-03-07T07:30:28;2.50;99.90
17701;DHT22;8969;48.576;12.580;2024-03-07T07:32:56;2.60;99.90
17701;DHT22;8969;48.576;12.580;2024-03-07T07:35:26;2.60;99.90
17701;DHT22;8969;48.576;12.580;2024-03-07T07:37:55;2.60;99.90
17701;DHT22;8969;48.576;12.580;2024-03-07T07:40:24;2.60;99.90
17701;DHT22;8969;48.576;12.580;2024-03-07T07:42:55;2.70;99.90
17701;DHT22;8969;48.576;12.580;2024-03-07T07:45:25;2.70;99.90
17701;DHT22;8969;48.576;12.580;2024-03-07T07:47:53;2.90;99.90
17701;DHT22;8969;48.576;12.580;2024-03-07T07:50:23;3.10;99.90
17701;DHT22;8969;48.576;12.580;2024-03-07T07:52:55;3.20;99.90
17701;DHT22;8969;48.576;12.580;2024-03-07T07:55:26;3.40;99.90
17701;DHT22;8969;48.576;12.580;2024-03-07T07:57:56;3.40;99.90
17701;DHT22;8969;48.576;12.580;2024-03-07T08:00:25;3.40;99.90
17701;DHT22;8969;48.576;12.580;2024-03-07T08:02:57;3.60;99.90
17701;DHT22;8969;48.576;12.580;2024-03-07T08:05:27;3.70;99.90
17701;DHT22;8969;48.576;12.580;2024-03-07T08:07:59;3.80;99.90
17701;DHT22;8969;48.576;12.580;2024-03-07T08:10:28;3.90;99.90
17701;DHT22;8969;48.576;12.580;2024-03-07T08:12:56;4.00;99.90
17701;DHT22;8969;48.576;12.580;2024-03-07T08:15:26;4.10;99.90
17701;DHT22;8969;48.576;12.580;2024-03-07T08:17:55;4.10;99.90
17701;DHT22;8969;48.576;12.580;2024-03-07T08:20:24;4.20;99.90
17701;DHT22;8969;48.576;12.580;2024-03-07T08:22:54;4.20;99.90
17701;DHT22;8969;48.576;12.580;2024-03-07T08:25:25;4.30;99.90
17701;DHT22;8969;48.576;12.580;2024-03-07T08:27:55;4.50;99.90
17701;DHT22;8969;48.576;12.580;2024-03-07T08:30:25;4.60;99.90
17701;DHT22;8969;48.576;12.580;2024-03-07T08:32:55;4.60;99.90
17701;DHT22;8969;48.576;12.580;2024-03-07T08:35:25;4.60;99.90
17701;DHT22;8969;48.576;12.580;2024-03-07T08:37:54;4.60;99.90
17701;DHT22;8969;48.576;12.580;2024-03-07T08:40:27;4.60;99.90
17701;DHT22;8969;48.576;12.580;2024-03-07T08:42:59;4.70;99.90
17701;DHT22;8969;48.576;12.580;2024-03-07T08:45:28;4.80;99.90
17701;DHT22;8969;48.576;12.580;2024-03-07T08:48:01;4.80;99.90
17701;DHT22;8969;48.576;12.580;2024-03-07T08:50:31;5.00;99.90
17701;DHT22;8969;48.576;12.580;2024-03-07T08:53:01;5.00;99.90
17701;DHT22;8969;48.576;12.580;2024-03-07T08:55:33;5.10;99.90
17701;DHT22;8969;48.576;12.580;2024-03-07T08:58:03;5.20;99.90
17701;DHT22;8969;48.576;12.580;2024-03-07T09:00:34;5.20;99.90
17701;DHT22;8969;48.576;12.580;2024-03-07T09:03:06;5.30;99.90
17701;DHT22;8969;48.576;12.580;2024-03-07T09:05:39;5.30;99.90
17701;DHT22;8969;48.576;12.580;2024-03-07T09:08:08;5.30;99.90
17701;DHT22;8969;48.576;12.580;2024-03-07T09:10:37;5.40;99.90
17701;DHT22;8969;48.576;12.580;2024-03-07T09:13:10;5.50;99.90
17701;DHT22;8969;48.576;12.580;2024-03-07T09:15:38;5.50;99.90
17701;DHT22;8969;48.576;12.580;2024-03-07T09:18:07;5.30;99.90
17701;DHT22;8969;48.576;12.580;2024-03-07T09:20:36;5.50;99.90
17701;DHT22;8969;48.576;12.580;2024-03-07T09:23:05;5.70;99.90
17701;DHT22;8969;48.576;12.580;2024-03-07T09:25:34;5.90;99.90
17701;DHT22;8969;48.576;12.580;2024-03-07T09:28:04;6.10;99.90
17701;DHT22;8969;48.576;12.580;2024-03-07T09:30:33;6.10;99.90
17701;DHT22;8969;48.576;12.580;2024-03-07T09:33:05;6.10;99.90
17701;DHT22;8969;48.576;12.580;2024-03-07T09:35:39;6.30;99.90
17701;DHT22;8969;48.576;12.580;2024-03-07T09:38:07;6.50;99.90
17701;DHT22;8969;48.576;12.580;2024-03-07T09:40:35;6.50;99.90
17701;DHT22;8969;48.576;12.580;2024-03-07T09:43:06;6.60;99.90
17701;DHT22;8969;48.576;12.580;2024-03-07T09:45:38;6.80;99.90
17701;DHT22;8969;48.576;12.580;2024-03-07T09:48:10;6.70;99.90
17701;DHT22;8969;48.576;12.580;2024-03-07T09:50:41;6.60;99.90
17701;DHT22;8969;48.576;12.580;2024-03-07T09:53:10;6.60;99.90
17701;DHT22;8969;48.576;12.580;2024-03-07T09:55:38;6.80;99.90
17701;DHT22;8969;48.576;12.580;2024-03-07T09:58:08;7.00;99.90
17701;DHT22;8969;48.576;12.580;2024-03-07T10:00:40;7.20;99.90
17701;DHT22;8969;48.576;12.580;2024-03-07T10:03:09;7.30;99.90
17701;DHT22;8969;48.576;12.580;2024-03-07T10:05:40;7.20;99.90
17701;DHT22;8969;48.576;12.580;2024-03-07T10:08:09;7.20;99.90
17701;DHT22;8969;48.576;12.580;2024-03-07T10:10:37;7.20;99.90
17701;DHT22;8969;48.576;12.580;2024-03-07T10:13:07;7.10;99.90
17701;DHT22;8969;48.576;12.580;2024-03-07T10:15:37;7.40;99.90
17701;DHT22;8969;48.576;12.580;2024-03-07T10:18:07;7.50;99.90
17701;DHT22;8969;48.576;12.580;2024-03-07T10:20:37;7.60;99.90
17701;DHT22;8969;48.576;12.580;2024-03-07T10:23:06;7.40;99.90
17701;DHT22;8969;48.576;12.580;2024-03-07T10:25:35;7.10;99.90
17701;DHT22;8969;48.576;12.580;2024-03-07T10:28:07;7.00;99.90
17701;DHT22;8969;48.576;12.580;2024-03-07T10:30:41;7.00;99.90
17701;DHT22;8969;48.576;12.580;2024-03-07T10:33:12;6.90;99.90
17701;DHT22;8969;48.576;12.580;2024-03-07T10:35:42;7.00;99.90
17701;DHT22;8969;48.576;12.580;2024-03-07T10:38:10;7.20;99.90
17701;DHT22;8969;48.576;12.580;2024-03-07T10:40:41;7.40;99.90
17701;DHT22;8969;48.576;12.580;2024-03-07T10:43:12;7.60;99.90
17701;DHT22;8969;48.576;12.580;2024-03-07T10:45:44;7.70;99.90
17701;DHT22;8969;48.576;12.580;2024-03-07T10:48:16;7.90;99.90
17701;DHT22;8969;48.576;12.580;2024-03-07T10:50:54;8.00;99.90
17701;DHT22;8969;48.576;12.580;2024-03-07T10:53:29;8.00;99.90
17701;DHT22;8969;48.576;12.580;2024-03-07T10:56:23;7.50;99.90
17701;DHT22;8969;48.576;12.580;2024-03-07T10:59:04;7.60;99.90
17701;DHT22;8969;48.576;12.580;2024-03-07T11:01:42;7.50;99.90
17701;DHT22;8969;48.576;12.580;2024-03-07T11:04:12;7.40;99.90
17701;DHT22;8969;48.576;12.580;2024-03-07T11:06:42;7.60;99.90
17701;DHT22;8969;48.576;12.580;2024-03-07T11:09:12;7.90;99.90
17701;DHT22;8969;48.576;12.580;2024-03-07T11:11:41;8.10;99.90
17701;DHT22;8969;48.576;12.580;2024-03-07T11:14:12;8.30;99.90
17701;DHT22;8969;48.576;12.580;2024-03-07T11:16:44;8.20;99.90
17701;DHT22;8969;48.576;12.580;2024-03-07T11:19:20;8.30;99.90
17701;DHT22;8969;48.576;12.580;2024-03-07T11:21:49;8.20;99.90
17701;DHT22;8969;48.576;12.580;2024-03-07T11:24:28;8.10;99.90
17701;DHT22;8969;48.576;12.580;2024-03-07T11:26:59;7.80;99.90
17701;DHT22;8969;48.576;12.580;2024-03-07T11:29:43;7.70;99.90
17701;DHT22;8969;48.576;12.580;2024-03-07T11:32:15;7.90;99.90
17701;DHT22;8969;48.576;12.580;2024-03-07T11:34:45;7.80;99.90
17701;DHT22;8969;48.576;12.580;2024-03-07T11:37:18;7.80;99.90
17701;DHT22;8969;48.576;12.580;2024-03-07T11:39:50;8.00;99.90
17701;DHT22;8969;48.576;12.580;2024-03-07T11:42:24;8.10;99.90
17701;DHT22;8969;48.576;12.580;2024-03-07T11:44:55;7.90;99.90
17701;DHT22;8969;48.576;12.580;2024-03-07T11:47:25;7.90;99.90
17701;DHT22;8969;48.576;12.580;2024-03-07T11:49:56;8.10;99.90
17701;DHT22;8969;48.576;12.580;2024-03-07T11:52:25;8.10;99.90
17701;DHT22;8969;48.576;12.580;2024-03-07T11:54:55;8.20;99.90
17701;DHT22;8969;48.576;12.580;2024-03-07T11:57:31;8.30;99.90
17701;DHT22;8969;48.576;12.580;2024-03-07T12:00:03;8.40;99.90
17701;DHT22;8969;48.576;12.580;2024-03-07T12:02:38;8.50;99.90
17701;DHT22;8969;48.576;12.580;2024-03-07T12:05:08;8.60;99.90
17701;DHT22;8969;48.576;12.580;2024-03-07T12:07:37;8.70;99.90
17701;DHT22;8969;48.576;12.580;2024-03-07T12:10:06;8.70;99.90
17701;DHT22;8969;48.576;12.580;2024-03-07T12:12:34;8.70;99.90
17701;DHT22;8969;48.576;12.580;2024-03-07T12:15:09;8.50;99.90
17701;DHT22;8969;48.576;12.580;2024-03-07T12:17:47;8.40;99.90
17701;DHT22;8969;48.576;12.580;2024-03-07T12:20:18;8.60;99.90
17701;DHT22;8969;48.576;12.580;2024-03-07T12:22:59;8.50;99.90
17701;DHT22;8969;48.576;12.580;2024-03-07T12:25:30;8.60;99.90
17701;DHT22;8969;48.576;12.580;2024-03-07T12:28:04;8.60;99.90
17701;DHT22;8969;48.576;12.580;2024-03-07T12:30:35;8.60;99.90
17701;DHT22;8969;48.576;12.580;2024-03-07T12:33:05;8.60;99.90
17701;DHT22;8969;48.576;12.580;2024-03-07T12:35:36;8.60;99.90
17701;DHT22;8969;48.576;12.580;2024-03-07T12:38:04;8.60;99.90
17701;DHT22;8969;48.576;12.580;2024-03-07T12:40:32;8.60;99.90
17701;DHT22;8969;48.576;12.580;2024-03-07T12:43:01;8.70;99.90
17701;DHT22;8969;48.576;12.580;2024-03-07T12:45:30;8.50;99.90
17701;DHT22;8969;48.576;12.580;2024-03-07T12:48:02;8.50;99.90
17701;DHT22;8969;48.576;12.580;2024-03-07T12:50:33;8.50;99.90
17701;DHT22;8969;48.576;12.580;2024-03-07T12:53:03;8.40;99.90
17701;DHT22;8969;48.576;12.580;2024-03-07T12:55:33;8.30;99.90
17701;DHT22;8969;48.576;12.580;2024-03-07T12:58:02;8.40;99.90
17701;DHT22;8969;48.576;12.580;2024-03-07T13:00:31;8.40;99.90
17701;DHT22;8969;48.576;12.580;2024-03-07T13:03:01;8.40;99.90
17701;DHT22;8969;48.576;12.580;2024-03-07T13:05:30;8.30;99.90
17701;DHT22;8969;48.576;12.580;2024-03-07T13:07:58;8.30;99.90
17701;DHT22;8969;48.576;12.580;2024-03-07T13:10:26;8.20;99.90
17701;DHT22;8969;48.576;12.580;2024-03-07T13:12:54;8.20;99.90
17701;DHT22;8969;48.576;12.580;2024-03-07T13:15:22;8.20;99.90
17701;DHT22;8969;48.576;12.580;2024-03-07T13:17:52;8.10;99.90
17701;DHT22;8969;48.576;12.580;2024-03-07T13:20:24;8.00;99.90
17701;DHT22;8969;48.576;12.580;2024-03-07T13:22:54;8.00;99.90
17701;DHT22;8969;48.576;12.580;2024-03-07T13:25:24;7.80;99.90
17701;DHT22;8969;48.576;12.580;2024-03-07T13:27:56;7.80;99.90
17701;DHT22;8969;48.576;12.580;2024-03-07T13:30:27;7.70;99.90
17701;DHT22;8969;48.576;12.580;2024-03-07T13:32:56;7.70;99.90
17701;DHT22;8969;48.576;12.580;2024-03-07T13:35:26;7.70;99.90
17701;DHT22;8969;48.576;12.580;2024-03-07T13:37:55;7.70;99.90
17701;DHT22;8969;48.576;12.580;2024-03-07T13:40:25;7.70;99.90
17701;DHT22;8969;48.576;12.580;2024-03-07T13:42:55;7.70;99.90
17701;DHT22;8969;48.576;12.580;2024-03-07T13:45:24;7.60;99.90
17701;DHT22;8969;48.576;12.580;2024-03-07T13:47:54;7.60;99.90
17701;DHT22;8969;48.576;12.580;2024-03-07T13:50:27;7.50;99.90
17701;DHT22;8969;48.576;12.580;2024-03-07T13:53:16;7.40;99.90
17701;DHT22;8969;48.576;12.580;2024-03-07T14:02:21;7.50;99.90
17701;DHT22;8969;48.576;12.580;2024-03-07T14:05:29;7.60;99.90
17701;DHT22;8969;48.576;12.580;2024-03-07T14:08:21;7.50;99.90
17701;DHT22;8969;48.576;12.580;2024-03-07T14:14:07;7.40;99.90
17701;DHT22;8969;48.576;12.580;2024-03-07T14:17:11;7.40;99.90
17701;DHT22;8969;48.576;12.580;2024-03-07T14:20:21;7.50;99.90
17701;DHT22;8969;48.576;12.580;2024-03-07T14:23:09;7.40;99.90
17701;DHT22;8969;48.576;12.580;2024-03-07T14:25:56;7.40;99.90
17701;DHT22;8969;48.576;12.580;2024-03-07T14:29:01;7.50;99.90
17701;DHT22;8969;48.576;12.580;2024-03-07T14:31:32;7.40;99.90
17701;DHT22;8969;48.576;12.580;2024-03-07T14:34:12;7.30;99.90
17701;DHT22;8969;48.576;12.580;2024-03-07T14:36:46;7.40;99.90
17701;DHT22;8969;48.576;12.580;2024-03-07T14:39:19;7.40;99.90
17701;DHT22;8969;48.576;12.580;2024-03-07T14:41:55;7.40;99.90
17701;DHT22;8969;48.576;12.580;2024-03-07T14:44:25;7.30;99.90
17701;DHT22;8969;48.576;12.580;2024-03-07T14:46:58;7.40;99.90
17701;DHT22;8969;48.576;12.580;2024-03-07T14:49:27;7.40;99.90
17701;DHT22;8969;48.576;12.580;2024-03-07T14:51:55;7.40;99.90
17701;DHT22;8969;48.576;12.580;2024-03-07T14:54:29;7.40;99.90
17701;DHT22;8969;48.576;12.580;2024-03-07T14:56:58;7.30;99.90
17701;DHT22;8969;48.576;12.580;2024-03-07T14:59:26;7.40;99.90
17701;DHT22;8969;48.576;12.580;2024-03-07T15:01:54;7.30;99.90
17701;DHT22;8969;48.576;12.580;2024-03-07T15:04:31;7.30;99.90
17701;DHT22;8969;48.576;12.580;2024-03-07T15:07:02;7.20;99.90
17701;DHT22;8969;48.576;12.580;2024-03-07T15:09:32;7.30;99.90
17701;DHT22;8969;48.576;12.580;2024-03-07T15:12:01;7.30;99.90
17701;DHT22;8969;48.576;12.580;2024-03-07T15:14:33;7.30;99.90
17701;DHT22;8969;48.576;12.580;2024-03-07T15:17:06;7.10;99.90
17701;DHT22;8969;48.576;12.580;2024-03-07T15:19:34;7.10;99.90
17701;DHT22;8969;48.576;12.580;2024-03-07T15:22:02;7.10;99.90
17701;DHT22;8969;48.576;12.580;2024-03-07T15:24:33;7.20;99.90
17701;DHT22;8969;48.576;12.580;2024-03-07T15:27:04;7.10;99.90
17701;DHT22;8969;48.576;12.580;2024-03-07T15:29:33;7.00;99.90
17701;DHT22;8969;48.576;12.580;2024-03-07T15:32:04;7.00;99.90
17701;DHT22;8969;48.576;12.580;2024-03-07T15:34:36;6.90;99.90
17701;DHT22;8969;48.576;12.580;2024-03-07T15:37:04;6.90;99.90
17701;DHT22;8969;48.576;12.580;2024-03-07T15:39:35;6.90;99.90
17701;DHT22;8969;48.576;12.580;2024-03-07T15:42:06;6.80;99.90
17701;DHT22;8969;48.576;12.580;2024-03-07T15:44:36;6.80;99.90
17701;DHT22;8969;48.576;12.580;2024-03-07T15:47:05;6.80;99.90
17701;DHT22;8969;48.576;12.580;2024-03-07T15:49:38;6.70;99.90
17701;DHT22;8969;48.576;12.580;2024-03-07T15:52:07;6.70;99.90
17701;DHT22;8969;48.576;12.580;2024-03-07T15:54:42;6.70;99.90
17701;DHT22;8969;48.576;12.580;2024-03-07T15:57:11;6.70;99.90
17701;DHT22;8969;48.576;12.580;2024-03-07T15:59:42;6.70;99.90
17701;DHT22;8969;48.576;12.580;2024-03-07T16:02:12;6.80;99.90
17701;DHT22;8969;48.576;12.580;2024-03-07T16:05:04;6.80;99.90
17701;DHT22;8969;48.576;12.580;2024-03-07T16:07:35;6.70;99.90
17701;DHT22;8969;48.576;12.580;2024-03-07T16:10:05;6.70;99.90
17701;DHT22;8969;48.576;12.580;2024-03-07T16:12:34;6.70;99.90
17701;DHT22;8969;48.576;12.580;2024-03-07T16:15:02;6.70;99.90
17701;DHT22;8969;48.576;12.580;2024-03-07T16:17:33;6.70;99.90